createdAt,value
2022-11-24T00:01:09.223Z,89.62
2022-11-24T00:04:00.955Z,89.11
2022-11-24T00:06:46.489Z,89.17
2022-11-24T00:09:32.295Z,89.04
2022-11-24T00:12:17.773Z,89.04
2022-11-24T00:15:06.529Z,89.12
2022-11-24T00:17:52.295Z,89.05
2022-11-24T00:20:37.791Z,89.15
2022-11-24T00:23:23.151Z,89.14
2022-11-24T00:26:10.139Z,89.12
2022-11-24T00:28:57.745Z,88.99
2022-11-24T00:31:43.775Z,89.24
2022-11-24T00:34:29.616Z,89.31
2022-11-24T00:37:15.078Z,89.53
2022-11-24T00:40:00.887Z,89.42
2022-11-24T00:42:46.354Z,89.32
2022-11-24T00:45:31.878Z,89.31
2022-11-24T00:48:17.501Z,89.04
2022-11-24T00:51:06.124Z,89.26
2022-11-24T00:53:53.251Z,89.69
2022-11-24T00:56:38.670Z,89.27
2022-11-24T00:59:24.134Z,88.99
2022-11-24T01:02:09.982Z,89.52
2022-11-24T01:04:55.487Z,89.35
2022-11-24T01:07:40.870Z,89.35
2022-11-24T01:10:26.253Z,89.33
2022-11-24T01:13:13.365Z,89.32
2022-11-24T01:15:59.002Z,89.44
2022-11-24T01:18:45.409Z,89.40
2022-11-24T01:21:31.071Z,89.46
2022-11-24T01:24:16.926Z,89.28
2022-11-24T01:27:02.338Z,89.35
2022-11-24T01:29:48.087Z,89.31
2022-11-24T01:32:34.358Z,89.59
2022-11-24T01:35:19.679Z,89.55
2022-11-24T01:38:05.365Z,89.04
2022-11-24T01:40:59.793Z,89.51
2022-11-24T01:43:46.133Z,89.41
2022-11-24T01:46:47.499Z,89.36
2022-11-24T01:49:44.858Z,89.18
2022-11-24T01:52:36.861Z,89.87
2022-11-24T01:55:28.759Z,89.58
2022-11-24T01:58:26.615Z,89.35
2022-11-24T02:01:12.847Z,89.48
2022-11-24T02:03:59.312Z,89.69
2022-11-24T02:06:46.393Z,89.70
2022-11-24T02:09:40.537Z,89.23
2022-11-24T02:12:27.495Z,89.85
2022-11-24T02:15:17.804Z,89.36
2022-11-24T02:18:03.422Z,89.55
2022-11-24T02:20:48.889Z,89.79
2022-11-24T02:23:46.891Z,89.82
2022-11-24T02:26:41.972Z,89.39
2022-11-24T02:29:27.457Z,89.35
2022-11-24T02:32:12.995Z,89.73
2022-11-24T02:35:07.729Z,89.15
2022-11-24T02:37:53.495Z,89.81
2022-11-24T02:40:41.567Z,89.44
2022-11-24T02:43:30.918Z,89.51
2022-11-24T02:46:16.630Z,89.14
2022-11-24T02:49:02.195Z,89.43
2022-11-24T02:51:47.651Z,89.94
2022-11-24T02:54:33.559Z,89.57
2022-11-24T02:57:19.339Z,89.53
2022-11-24T03:00:05.391Z,89.59
2022-11-24T03:02:51.116Z,89.33
2022-11-24T03:05:36.691Z,89.72
2022-11-24T03:08:22.234Z,89.52
2022-11-24T03:11:07.564Z,89.39
2022-11-24T03:13:53.154Z,89.85
2022-11-24T03:16:38.518Z,89.73
2022-11-24T03:19:24.316Z,89.55
2022-11-24T03:22:09.687Z,90.00
2022-11-24T03:24:55.099Z,89.73
2022-11-24T03:27:40.572Z,89.80
2022-11-24T03:30:26.489Z,89.75
2022-11-24T03:33:12.036Z,90.07
2022-11-24T03:36:00.579Z,89.92
2022-11-24T03:38:46.241Z,89.80
2022-11-24T03:41:31.489Z,89.85
2022-11-24T03:44:17.540Z,89.90
2022-11-24T03:47:03.237Z,89.69
2022-11-24T03:49:48.733Z,89.98
2022-11-24T03:52:34.155Z,89.47
2022-11-24T03:55:19.658Z,89.77
2022-11-24T03:58:05.306Z,89.91
2022-11-24T04:00:52.783Z,89.36
2022-11-24T04:03:38.157Z,90.11
2022-11-24T04:06:23.797Z,89.87
2022-11-24T04:09:09.987Z,89.67
2022-11-24T04:12:14.384Z,89.67
2022-11-24T04:15:00.285Z,90.10
2022-11-24T04:17:46.796Z,90.10
2022-11-24T04:20:33.212Z,89.93
2022-11-24T04:23:18.944Z,89.90
2022-11-24T04:26:04.239Z,90.16
2022-11-24T04:28:49.722Z,90.27
2022-11-24T04:31:35.087Z,90.15
2022-11-24T04:34:20.562Z,90.27
2022-11-24T04:37:06.005Z,89.86
2022-11-24T04:39:51.753Z,90.27
2022-11-24T04:42:37.578Z,90.39
2022-11-24T04:45:24.100Z,90.68
2022-11-24T04:48:09.602Z,90.69
2022-11-24T04:50:55.213Z,90.98
2022-11-24T04:53:41.391Z,90.74
2022-11-24T04:56:27.320Z,91.18
2022-11-24T04:59:15.720Z,91.02
2022-11-24T05:02:01.433Z,90.87
2022-11-24T05:04:47.138Z,91.08
2022-11-24T05:07:32.938Z,90.87
2022-11-24T05:10:36.442Z,91.36
2022-11-24T05:13:22.244Z,90.87
2022-11-24T05:16:08.096Z,90.87
2022-11-24T05:18:53.758Z,90.75
2022-11-24T05:21:39.444Z,90.78
2022-11-24T05:24:24.940Z,90.79
2022-11-24T05:27:11.442Z,90.62
2022-11-24T05:29:56.692Z,90.54
2022-11-24T05:32:42.810Z,90.71
2022-11-24T05:35:28.274Z,90.45
2022-11-24T05:38:13.740Z,90.70
2022-11-24T05:41:06.201Z,90.52
2022-11-24T05:43:52.010Z,90.67
2022-11-24T05:46:37.517Z,90.61
2022-11-24T05:49:23.069Z,90.45
2022-11-24T05:52:09.179Z,90.67
2022-11-24T05:54:54.965Z,90.32
2022-11-24T05:57:41.172Z,90.40
2022-11-24T06:00:27.390Z,90.22
2022-11-24T06:03:12.837Z,90.34
2022-11-24T06:05:58.612Z,90.58
2022-11-24T06:08:43.907Z,90.61
2022-11-24T06:11:29.629Z,90.53
2022-11-24T06:14:15.494Z,90.15
2022-11-24T06:17:00.982Z,90.22
2022-11-24T06:19:50.072Z,90.08
2022-11-24T06:22:36.361Z,90.10
2022-11-24T06:25:21.792Z,90.18
2022-11-24T06:28:07.835Z,90.21
2022-11-24T06:30:53.901Z,89.88
2022-11-24T06:33:39.452Z,89.91
2022-11-24T06:36:25.636Z,89.97
2022-11-24T06:39:11.372Z,89.71
2022-11-24T06:41:56.973Z,89.88
2022-11-24T06:44:42.517Z,89.72
2022-11-24T06:47:28.092Z,89.93
2022-11-24T06:50:13.822Z,89.86
2022-11-24T06:52:58.967Z,89.76
2022-11-24T06:55:45.527Z,89.76
2022-11-24T06:58:30.969Z,89.85
2022-11-24T07:01:27.689Z,89.70
2022-11-24T07:04:13.530Z,89.77
2022-11-24T07:06:58.959Z,89.50
2022-11-24T07:09:44.517Z,89.38
2022-11-24T07:12:34.258Z,89.33
2022-11-24T07:15:19.790Z,89.27
2022-11-24T07:18:05.324Z,89.75
2022-11-24T07:20:50.667Z,89.41
2022-11-24T07:23:36.560Z,89.51
2022-11-24T07:26:23.452Z,89.24
2022-11-24T07:29:08.677Z,89.61
2022-11-24T07:31:54.264Z,89.19
2022-11-24T07:34:39.664Z,89.55
2022-11-24T07:37:30.873Z,89.46
2022-11-24T07:40:17.159Z,89.74
2022-11-24T07:43:02.259Z,89.66
2022-11-24T07:45:53.007Z,89.41
2022-11-24T07:48:38.726Z,89.71
2022-11-24T07:51:24.291Z,89.29
2022-11-24T07:54:09.780Z,89.44
2022-11-24T07:56:55.874Z,89.59
2022-11-24T07:59:41.567Z,89.29
2022-11-24T08:02:27.153Z,89.21
2022-11-24T08:05:12.314Z,89.12
2022-11-24T08:08:00.091Z,89.03
2022-11-24T08:10:45.526Z,88.91
2022-11-24T08:13:30.950Z,88.87
2022-11-24T08:16:18.291Z,88.94
2022-11-24T08:19:03.827Z,88.74
2022-11-24T08:21:49.310Z,89.29
2022-11-24T08:24:35.169Z,88.74
2022-11-24T08:27:21.071Z,89.01
2022-11-24T08:30:08.150Z,89.04
2022-11-24T08:32:53.856Z,88.71
2022-11-24T08:35:39.691Z,88.99
2022-11-24T08:38:24.953Z,88.87
2022-11-24T08:41:14.915Z,88.35
2022-11-24T08:44:00.381Z,88.57
2022-11-24T08:46:46.592Z,88.22
2022-11-24T08:49:32.232Z,88.23
2022-11-24T08:52:17.626Z,88.02
2022-11-24T08:55:03.240Z,88.44
2022-11-24T08:57:48.708Z,87.83
2022-11-24T09:00:34.205Z,87.98
2022-11-24T09:03:19.575Z,88.05
2022-11-24T09:06:06.218Z,87.67
2022-11-24T09:08:53.888Z,88.10
2022-11-24T09:11:39.278Z,88.14
2022-11-24T09:14:24.728Z,87.65
2022-11-24T09:17:10.224Z,87.70
2022-11-24T09:19:55.595Z,87.27
2022-11-24T09:22:43.343Z,87.28
2022-11-24T09:25:28.455Z,87.44
2022-11-24T09:28:14.154Z,87.68
2022-11-24T09:31:04.633Z,87.16
2022-11-24T09:33:50.372Z,87.04
2022-11-24T09:36:36.767Z,87.05
2022-11-24T09:39:22.248Z,87.68
2022-11-24T09:42:14.780Z,86.95
2022-11-24T09:45:09.325Z,87.34
2022-11-24T09:48:09.702Z,86.90
2022-11-24T09:50:59.969Z,87.41
2022-11-24T09:53:56.863Z,87.40
2022-11-24T09:56:43.291Z,86.67
2022-11-24T09:59:28.845Z,86.85
2022-11-24T10:02:14.258Z,86.98
2022-11-24T10:04:59.770Z,86.70
2022-11-24T10:08:06.824Z,86.31
2022-11-24T10:10:59.560Z,86.49
2022-11-24T10:14:00.159Z,86.38
2022-11-24T10:16:57.180Z,86.73
2022-11-24T10:20:13.244Z,86.45
2022-11-24T10:23:39.763Z,86.31
2022-11-24T10:26:36.363Z,86.79
2022-11-24T10:29:30.968Z,86.16
2022-11-24T10:32:25.113Z,86.54
2022-11-24T10:35:17.453Z,86.46
2022-11-24T10:38:51.069Z,86.17
2022-11-24T10:41:50.588Z,85.95
2022-11-24T10:44:35.893Z,85.90
2022-11-24T10:47:22.992Z,85.92
2022-11-24T10:50:17.779Z,86.07
2022-11-24T10:53:25.803Z,85.86
2022-11-24T10:56:11.024Z,85.42
2022-11-24T10:58:56.400Z,85.47
2022-11-24T11:01:41.740Z,85.49
2022-11-24T11:04:27.222Z,85.35
2022-11-24T11:07:21.011Z,85.18
2022-11-24T11:10:25.280Z,85.23
2022-11-24T11:13:30.968Z,85.28
2022-11-24T11:16:24.592Z,85.06
2022-11-24T11:19:56.881Z,84.75
2022-11-24T11:22:44.285Z,84.59
2022-11-24T11:25:34.414Z,85.37
2022-11-24T11:28:31.528Z,84.45
2022-11-24T11:31:22.424Z,85.11
2022-11-24T11:34:26.755Z,85.24
2022-11-24T11:37:16.015Z,84.80
2022-11-24T11:40:02.220Z,84.97
2022-11-24T11:43:26.863Z,84.48
2022-11-24T11:46:16.106Z,84.68
2022-11-24T11:49:01.762Z,84.36
2022-11-24T11:51:54.182Z,84.10
2022-11-24T11:55:16.888Z,84.40
2022-11-24T11:58:11.678Z,84.86
2022-11-24T12:01:12.987Z,84.14
2022-11-24T12:04:13.910Z,84.54
2022-11-24T12:07:11.931Z,84.30
2022-11-24T12:10:33.517Z,84.42
2022-11-24T12:13:36.985Z,83.95
2022-11-24T12:17:01.249Z,84.61
2022-11-24T12:20:25.172Z,84.68
2022-11-24T12:23:11.407Z,84.17
2022-11-24T12:26:24.245Z,84.60
2022-11-24T12:29:34.520Z,83.61
2022-11-24T12:33:00.385Z,83.92
2022-11-24T12:35:52.173Z,83.94
2022-11-24T12:38:47.064Z,83.93
2022-11-24T12:41:50.589Z,84.39
2022-11-24T12:45:02.040Z,84.39
2022-11-24T12:48:18.349Z,84.26
2022-11-24T12:51:06.506Z,84.55
2022-11-24T12:53:53.391Z,84.63
2022-11-24T12:56:52.558Z,85.01
2022-11-24T12:59:54.001Z,85.09
2022-11-24T13:02:39.667Z,85.31
2022-11-24T13:05:35.917Z,85.10
2022-11-24T13:08:22.168Z,85.00
2022-11-24T13:11:41.713Z,84.90
2022-11-24T13:14:37.778Z,84.66
2022-11-24T13:17:56.670Z,84.97
2022-11-24T13:20:40.433Z,84.39
2022-11-24T13:23:27.909Z,84.69
2022-11-24T13:26:27.551Z,84.74
2022-11-24T13:29:31.166Z,84.50
2022-11-24T13:32:19.791Z,84.54
2022-11-24T13:35:16.277Z,84.02
2022-11-24T13:38:01.488Z,83.99
2022-11-24T13:41:06.211Z,83.66
2022-11-24T13:44:14.821Z,84.47
2022-11-24T13:47:06.392Z,84.47
2022-11-24T13:49:52.060Z,84.11
2022-11-24T13:52:40.735Z,84.50
2022-11-24T13:55:30.231Z,84.04
2022-11-24T13:58:24.698Z,83.98
2022-11-24T14:01:32.002Z,84.01
2022-11-24T14:04:36.271Z,83.63
2022-11-24T14:07:22.771Z,83.49
2022-11-24T14:10:18.542Z,83.73
2022-11-24T14:13:36.195Z,83.35
2022-11-24T14:16:23.860Z,83.87
2022-11-24T14:19:11.243Z,83.49
2022-11-24T14:21:57.006Z,83.77
2022-11-24T14:24:45.511Z,84.09
2022-11-24T14:27:35.835Z,84.17
2022-11-24T14:30:24.121Z,84.18
2022-11-24T14:33:12.315Z,84.37
2022-11-24T14:35:57.922Z,83.82
2022-11-24T14:38:44.487Z,84.01
2022-11-24T14:41:30.943Z,83.73
2022-11-24T14:44:29.887Z,84.15
2022-11-24T14:47:30.183Z,83.78
2022-11-24T14:50:19.705Z,83.86
2022-11-24T14:53:14.352Z,83.85
2022-11-24T14:56:11.227Z,83.80
2022-11-24T14:58:57.978Z,83.88
2022-11-24T15:01:43.763Z,83.73
2022-11-24T15:05:00.823Z,83.80
2022-11-24T15:07:41.105Z,84.22
2022-11-24T15:10:36.553Z,84.16
2022-11-24T15:13:24.493Z,84.08
2022-11-24T15:16:19.540Z,84.14
2022-11-24T15:19:06.804Z,84.24
2022-11-24T15:21:52.662Z,83.67
2022-11-24T15:24:49.830Z,83.78
2022-11-24T15:27:35.234Z,83.80
2022-11-24T15:30:21.176Z,83.84
2022-11-24T15:33:14.936Z,84.14
2022-11-24T15:36:00.942Z,83.76
2022-11-24T15:38:46.461Z,84.37
2022-11-24T15:41:33.025Z,84.37
2022-11-24T15:44:18.403Z,84.14
2022-11-24T15:47:03.763Z,84.32
2022-11-24T15:49:48.917Z,83.72
2022-11-24T15:52:34.439Z,84.21
2022-11-24T15:55:22.042Z,84.34
2022-11-24T15:58:11.497Z,84.21
2022-11-24T16:00:57.079Z,84.11
2022-11-24T16:03:47.819Z,83.99
2022-11-24T16:06:34.024Z,84.14
2022-11-24T16:09:19.909Z,84.08
2022-11-24T16:12:06.668Z,84.24
2022-11-24T16:14:52.128Z,84.27
2022-11-24T16:17:37.652Z,84.56
2022-11-24T16:20:23.553Z,84.23
2022-11-24T16:23:09.278Z,84.22
2022-11-24T16:25:55.054Z,84.21
2022-11-24T16:28:40.817Z,84.04
2022-11-24T16:31:26.134Z,84.26
2022-11-24T16:34:11.878Z,84.32
2022-11-24T16:36:57.443Z,84.10
2022-11-24T16:39:49.646Z,84.37
2022-11-24T16:42:35.795Z,84.43
2022-11-24T16:45:21.086Z,84.36
2022-11-24T16:48:06.723Z,84.19
2022-11-24T16:50:52.141Z,84.41
2022-11-24T16:53:38.316Z,84.32
2022-11-24T16:56:23.568Z,84.09
2022-11-24T16:59:09.259Z,84.60
2022-11-24T17:01:54.573Z,84.24
2022-11-24T17:04:40.325Z,84.24
2022-11-24T17:07:26.417Z,84.40
2022-11-24T17:10:12.054Z,84.72
2022-11-24T17:12:57.350Z,84.67
2022-11-24T17:15:48.437Z,84.71
2022-11-24T17:18:36.767Z,84.65
2022-11-24T17:21:25.240Z,84.33
2022-11-24T17:24:15.583Z,84.50
2022-11-24T17:27:03.463Z,84.46
2022-11-24T17:29:48.873Z,84.95
2022-11-24T17:32:34.595Z,84.50
2022-11-24T17:35:20.031Z,84.91
2022-11-24T17:38:05.806Z,84.50
2022-11-24T17:40:51.339Z,84.76
2022-11-24T17:43:36.915Z,85.03
2022-11-24T17:46:24.040Z,85.07
2022-11-24T17:49:13.185Z,84.86
2022-11-24T17:51:58.912Z,85.28
2022-11-24T17:54:46.752Z,84.93
2022-11-24T17:57:32.713Z,85.45
2022-11-24T18:00:18.687Z,84.93
2022-11-24T18:03:05.574Z,85.29
2022-11-24T18:05:51.335Z,85.34
2022-11-24T18:08:38.573Z,85.51
2022-11-24T18:11:31.799Z,85.47
2022-11-24T18:14:17.519Z,85.60
2022-11-24T18:17:02.777Z,85.44
2022-11-24T18:19:48.241Z,85.62
2022-11-24T18:23:04.042Z,85.29
2022-11-24T18:25:39.680Z,85.54
2022-11-24T18:28:25.750Z,85.67
2022-11-24T18:31:16.482Z,85.44
2022-11-24T18:34:03.097Z,85.59
2022-11-24T18:36:52.181Z,85.68
2022-11-24T18:39:42.065Z,85.69
2022-11-24T18:42:28.659Z,85.77
2022-11-24T18:45:14.206Z,85.49
2022-11-24T18:47:59.613Z,85.86
2022-11-24T18:50:52.928Z,85.44
2022-11-24T18:53:38.557Z,85.62
2022-11-24T18:56:24.670Z,85.41
2022-11-24T18:59:10.827Z,85.43
2022-11-24T19:01:58.131Z,85.43
2022-11-24T19:04:44.322Z,85.54
2022-11-24T19:07:29.779Z,85.61
2022-11-24T19:10:16.189Z,85.64
2022-11-24T19:13:01.550Z,85.75
2022-11-24T19:15:48.629Z,85.46
2022-11-24T19:18:34.126Z,85.84
2022-11-24T19:21:20.179Z,85.83
2022-11-24T19:24:07.581Z,85.67
2022-11-24T19:26:54.390Z,85.68
2022-11-24T19:29:43.015Z,85.53
2022-11-24T19:32:31.348Z,85.99
2022-11-24T19:35:16.791Z,85.88
2022-11-24T19:38:02.624Z,85.55
2022-11-24T19:40:48.187Z,85.40
2022-11-24T19:43:34.182Z,85.40
2022-11-24T19:46:20.064Z,85.43
2022-11-24T19:49:08.344Z,85.67
2022-11-24T19:51:53.543Z,85.51
2022-11-24T19:54:39.478Z,85.73
2022-11-24T19:57:24.926Z,85.07
2022-11-24T20:00:10.970Z,85.24
2022-11-24T20:02:56.173Z,85.05
2022-11-24T20:05:41.622Z,85.35
2022-11-24T20:08:35.417Z,85.19
2022-11-24T20:11:22.113Z,85.05
2022-11-24T20:14:08.169Z,84.96
2022-11-24T20:16:53.806Z,85.39
2022-11-24T20:19:39.303Z,85.12
2022-11-24T20:22:24.821Z,85.01
2022-11-24T20:25:11.472Z,85.30
2022-11-24T20:27:57.521Z,85.60
2022-11-24T20:30:45.038Z,85.44
2022-11-24T20:33:30.918Z,85.54
2022-11-24T20:36:19.814Z,85.58
2022-11-24T20:39:09.077Z,85.55
2022-11-24T20:41:55.884Z,85.42
2022-11-24T20:44:41.268Z,85.59
2022-11-24T20:47:27.010Z,85.39
2022-11-24T20:50:12.565Z,85.51
2022-11-24T20:52:58.026Z,85.56
2022-11-24T20:55:43.686Z,85.68
2022-11-24T20:58:29.017Z,85.62
2022-11-24T21:01:20.294Z,85.75
2022-11-24T21:04:08.974Z,85.60
2022-11-24T21:06:54.828Z,85.67
2022-11-24T21:09:40.391Z,85.51
2022-11-24T21:12:25.793Z,86.11
2022-11-24T21:15:11.192Z,85.93
2022-11-24T21:17:56.706Z,85.96
2022-11-24T21:20:42.109Z,85.93
2022-11-24T21:23:28.263Z,85.75
2022-11-24T21:26:17.189Z,85.77
2022-11-24T21:29:03.645Z,85.86
2022-11-24T21:31:49.243Z,85.89
2022-11-24T21:34:35.220Z,85.95
2022-11-24T21:37:21.022Z,86.00
2022-11-24T21:40:07.340Z,85.73
2022-11-24T21:42:52.938Z,85.74
2022-11-24T21:45:38.285Z,85.80
2022-11-24T21:48:23.809Z,85.91
2022-11-24T21:51:13.044Z,85.97
2022-11-24T21:53:58.559Z,85.82
2022-11-24T21:56:44.248Z,85.68
2022-11-24T21:59:29.676Z,85.76
2022-11-24T22:02:15.055Z,85.80
2022-11-24T22:05:00.461Z,85.73
2022-11-24T22:07:46.029Z,85.74
2022-11-24T22:10:31.421Z,85.72
2022-11-24T22:13:16.773Z,85.80
2022-11-24T22:16:17.852Z,85.94
2022-11-24T22:19:03.702Z,85.80
2022-11-24T22:21:49.065Z,85.87
2022-11-24T22:24:34.909Z,85.82
2022-11-24T22:27:20.699Z,86.01
2022-11-24T22:30:07.139Z,86.07
2022-11-24T22:32:53.787Z,86.07
2022-11-24T22:35:39.386Z,86.39
2022-11-24T22:38:26.094Z,85.99
2022-11-24T22:41:17.423Z,85.99
2022-11-24T22:44:03.927Z,86.20
2022-11-24T22:46:49.480Z,86.07
2022-11-24T22:49:35.131Z,86.25
2022-11-24T22:52:20.799Z,86.13
2022-11-24T22:55:06.568Z,86.18
2022-11-24T22:57:56.822Z,86.04
2022-11-24T23:00:42.331Z,86.05
2022-11-24T23:03:27.700Z,86.12
2022-11-24T23:06:15.472Z,85.83
2022-11-24T23:09:03.772Z,86.14
2022-11-24T23:11:49.626Z,86.20
2022-11-24T23:14:35.525Z,85.79
2022-11-24T23:17:21.353Z,86.11
2022-11-24T23:20:07.489Z,86.20
2022-11-24T23:22:55.352Z,86.11
2022-11-24T23:25:40.780Z,86.13
2022-11-24T23:28:26.519Z,86.04
2022-11-24T23:31:17.708Z,85.79
2022-11-24T23:34:04.388Z,86.21
2022-11-24T23:36:50.002Z,86.16
2022-11-24T23:39:35.423Z,86.57
2022-11-24T23:42:21.555Z,86.37
2022-11-24T23:45:08.828Z,86.27
2022-11-24T23:47:54.428Z,86.19
2022-11-24T23:50:39.868Z,86.54
2022-11-24T23:53:25.497Z,86.42
2022-11-24T23:56:17.474Z,86.52
2022-11-24T23:59:04.850Z,86.66
